| time (UTC) | temp F | wind direction | speed knots | gust knots | rain 1hr in | rain 24hr in | rain mn in | humidity % | barometer mb |
| 20260502193816 | 65 | 216 | 0.9 | 12.2 | 0.00 | 0.00 | 0.00 | 28 | 1028.0 |
| 20260502193252 | 66 | 223 | 0.9 | 10.4 | 0.00 | 0.00 | 0.00 | 30 | 1028.1 |
| 20260502192747 | 65 | 198 | 1.7 | 12.2 | 0.00 | 0.00 | 0.00 | 30 | 1028.1 |
| 20260502192248 | 65 | 202 | 2.6 | 12.2 | 0.00 | 0.00 | 0.00 | 29 | 1028.2 |
| 20260502191722 | 65 | 227 | 0.9 | 8.7 | 0.00 | 0.00 | 0.00 | 30 | 1028.3 |
| 20260502191206 | 64 | 254 | 0.9 | 7.8 | 0.00 | 0.00 | 0.00 | 30 | 1028.4 |
| 20260502190622 | 63 | 216 | 0.9 | 7.8 | 0.00 | 0.00 | 0.00 | 29 | 1028.6 |
| 20260502190327 | 64 | 222 | 0.9 | 8.7 | 0.00 | 0.00 | 0.00 | 29 | 1028.7 |
| 20260502185805 | 64 | 246 | 0.9 | 8.7 | 0.00 | 0.00 | 0.00 | 30 | 1028.8 |
| 20260502185649 | 63 | 214 | 1.7 | 9.6 | 0.00 | 0.00 | 0.00 | 31 | 1028.7 |
| 20260502184510 | 63 | 230 | 2.6 | 14.8 | 0.00 | 0.00 | 0.00 | 31 | 1029.0 |
| 20260502183941 | 63 | 265 | 0.9 | 12.2 | 0.00 | 0.00 | 0.00 | 30 | 1029.1 |
| 20260502183647 | 63 | 211 | 0.9 | 12.2 | 0.00 | 0.00 | 0.00 | 32 | 1029.2 |
| 20260502182914 | 62 | 273 | 3.5 | 21.7 | 0.00 | 0.00 | 0.00 | 31 | 1029.2 |
| 20260502182345 | 62 | 261 | 2.6 | 21.7 | 0.00 | 0.00 | 0.00 | 32 | 1029.4 |
| 20260502181835 | 62 | 210 | 0.9 | 8.7 | 0.00 | 0.00 | 0.00 | 31 | 1029.4 |
| 20260502181341 | 62 | 215 | 0.9 | 7.8 | 0.00 | 0.00 | 0.00 | 30 | 1029.7 |
| 20260502181335 | 62 | 205 | 0.9 | 7.8 | 0.00 | 0.00 | 0.00 | 31 | 1029.6 |
| 20260502180326 | 62 | 223 | 0.9 | 7.0 | 0.00 | 0.00 | 0.00 | 30 | 1029.8 |
| 20260502170149 | 59 | 205 | 1.7 | 9.6 | 0.00 | 0.00 | 0.00 | 33 | 1030.8 |
| 20260502170144 | 59 | 214 | 1.7 | 10.4 | 0.00 | 0.00 | 0.00 | 32 | 1030.7 |
| 20260502164103 | 58 | 196 | 0.9 | 9.6 | 0.00 | 0.00 | 0.00 | 34 | 1031.0 |
| 20260502163816 | 57 | 236 | 0.9 | 9.6 | 0.00 | 0.00 | 0.00 | 36 | 1031.0 |
| 20260502163242 | 57 | 214 | 1.7 | 10.4 | 0.00 | 0.00 | 0.00 | 35 | 1031.1 |
| 20260502162443 | 57 | 212 | 1.7 | 10.4 | 0.00 | 0.00 | 0.00 | 35 | 1031.2 |
| 20260502161924 | 57 | 213 | 0.9 | 7.8 | 0.00 | 0.00 | 0.00 | 37 | 1031.2 |
| 20260502161406 | 57 | 182 | 0.9 | 8.7 | 0.00 | 0.00 | 0.00 | 36 | 1031.3 |
| 20260502160903 | 56 | 225 | 0.9 | 8.7 | 0.00 | 0.00 | 0.00 | 37 | 1031.4 |
| 20260502160406 | 56 | 235 | 1.7 | 8.7 | 0.00 | 0.00 | 0.00 | 37 | 1031.4 |
| 20260502152325 | 54 | 215 | 0.9 | 9.6 | 0.00 | 0.00 | 0.00 | 41 | 1031.7 |
| 20260502151822 | 54 | 233 | 0.9 | 9.6 | 0.00 | 0.00 | 0.00 | 42 | 1031.8 |
| 20260502151256 | 54 | 248 | 0.0 | 4.3 | 0.00 | 0.00 | 0.00 | 43 | 1031.8 |
| 20260502151116 | 53 | 219 | 0.0 | 5.2 | 0.00 | 0.00 | 0.00 | 46 | 1032.1 |
| 20260502150754 | 54 | 239 | 0.9 | 6.1 | 0.00 | 0.00 | 0.00 | 44 | 1032.0 |
| 20260502150500 | 53 | 240 | 0.9 | 6.1 | 0.00 | 0.00 | 0.00 | 45 | 1032.1 |
| 20260502130249 | 42 | 219 | 0.0 | 1.7 | 0.00 | 0.00 | 0.00 | 62 | 1032.4 |
| 20260502123635 | 40 | 221 | 0.0 | 0.0 | 0.00 | 0.00 | 0.00 | 68 | 1032.4 |
| 20260502123133 | 40 | 216 | 0.0 | 1.7 | 0.00 | 0.00 | 0.00 | 68 | 1032.4 |
| 20260502122616 | 39 | 215 | 0.0 | 6.1 | 0.00 | 0.00 | 0.00 | 68 | 1032.3 |
| 20260502122119 | 39 | 212 | 0.0 | 6.1 | 0.00 | 0.00 | 0.00 | 68 | 1032.3 |
| 20260502121554 | 39 | 212 | 0.0 | 6.1 | 0.00 | 0.00 | 0.00 | 68 | 1032.3 |
| 20260502121049 | 39 | 223 | 0.0 | 6.1 | 0.00 | 0.00 | 0.00 | 69 | 1032.4 |
| 20260502120548 | 38 | 223 | 0.0 | 0.9 | 0.00 | 0.00 | 0.00 | 69 | 1032.4 |
| 20260502115503 | 38 | 226 | 0.0 | 0.0 | 0.00 | 0.00 | 0.00 | 70 | 1032.3 |
| 20260502115007 | 38 | 225 | 0.0 | 0.0 | 0.00 | 0.00 | 0.00 | 70 | 1032.2 |
| 20260502114438 | 38 | 227 | 0.0 | 0.0 | 0.00 | 0.00 | 0.00 | 69 | 1032.2 |
| 20260502113937 | 38 | 227 | 0.0 | 0.0 | 0.00 | 0.00 | 0.00 | 69 | 1032.1 |
| 20260502113411 | 38 | 227 | 0.0 | 0.0 | 0.00 | 0.00 | 0.00 | 69 | 1032.2 |
| 20260502112845 | 38 | 227 | 0.0 | 0.0 | 0.00 | 0.00 | 0.00 | 69 | 1032.1 |
| 20260502112327 | 38 | 227 | 0.0 | 0.0 | 0.00 | 0.00 | 0.00 | 68 | 1032.1 |
| 20260502111831 | 38 | 227 | 0.0 | 0.0 | 0.00 | 0.00 | 0.00 | 68 | 1032.1 |
| 20260502111302 | 38 | 227 | 0.0 | 0.0 | 0.00 | 0.00 | 0.00 | 67 | 1032.0 |
| 20260502110800 | 38 | 227 | 0.0 | 0.0 | 0.00 | 0.00 | 0.00 | 67 | 1032.1 |
| 20260502110236 | 38 | 227 | 0.0 | 0.0 | 0.00 | 0.00 | 0.00 | 67 | 1032.1 |
| 20260502105722 | 38 | 229 | 0.0 | 0.0 | 0.00 | 0.00 | 0.00 | 67 | 1032.1 |
| 20260502105222 | 38 | 214 | 0.0 | 0.0 | 0.00 | 0.00 | 0.00 | 66 | 1032.1 |
| 20260502104712 | 39 | 213 | 0.0 | 0.0 | 0.00 | 0.00 | 0.00 | 66 | 1032.1 |
| 20260502104211 | 39 | 212 | 0.0 | 0.0 | 0.00 | 0.00 | 0.00 | 66 | 1032.2 |
| 20260502103642 | 39 | 209 | 0.0 | 3.5 | 0.00 | 0.00 | 0.00 | 66 | 1032.1 |
| 20260502103140 | 39 | 215 | 0.0 | 3.5 | 0.00 | 0.00 | 0.00 | 66 | 1032.1 |
| 20260502102619 | 39 | 214 | 0.0 | 2.6 | 0.00 | 0.00 | 0.00 | 65 | 1032.1 |
| 20260502102119 | 39 | 203 | 0.0 | 2.6 | 0.00 | 0.00 | 0.00 | 65 | 1032.1 |
| 20260502101619 | 39 | 202 | 0.0 | 2.6 | 0.00 | 0.00 | 0.00 | 65 | 1032.1 |
| 20260502101114 | 39 | 202 | 0.0 | 2.6 | 0.00 | 0.00 | 0.00 | 65 | 1032.1 |
| 20260502100840 | 39 | 213 | 0.0 | 0.0 | 0.00 | 0.00 | 0.00 | 64 | 1032.1 |
| 20260502100309 | 39 | 216 | 0.0 | 0.9 | 0.00 | 0.00 | 0.00 | 64 | 1032.0 |
| 20260502091359 | 40 | 209 | 0.0 | 0.9 | 0.00 | 0.00 | 0.00 | 62 | 1032.0 |
| 20260502090857 | 40 | 207 | 0.0 | 0.9 | 0.00 | 0.00 | 0.00 | 62 | 1031.8 |
| 20260502090352 | 40 | 207 | 0.0 | 0.0 | 0.00 | 0.00 | 0.00 | 62 | 1032.0 |
| 20260502071410 | 42 | 235 | 0.0 | 0.0 | 0.00 | 0.00 | 0.00 | 55 | 1032.3 |
| 20260502070902 | 42 | 235 | 0.0 | 0.0 | 0.00 | 0.00 | 0.00 | 55 | 1032.3 |
| 20260502070402 | 42 | 235 | 0.0 | 0.0 | 0.00 | 0.00 | 0.00 | 55 | 1032.3 |
| 20260502065844 | 42 | 235 | 0.0 | 0.0 | 0.00 | 0.00 | 0.00 | 55 | 1032.3 |
| 20260502065343 | 42 | 235 | 0.0 | 0.0 | 0.00 | 0.00 | 0.00 | 55 | 1032.4 |
| 20260502064847 | 42 | 238 | 0.0 | 0.0 | 0.00 | 0.00 | 0.00 | 54 | 1032.4 |
| 20260502064843 | 42 | 238 | 0.0 | 0.0 | 0.00 | 0.00 | 0.00 | 54 | 1032.4 |
| 20260502063839 | 42 | 238 | 0.0 | 1.7 | 0.00 | 0.00 | 0.00 | 54 | 1032.4 |
| 20260502063610 | 42 | 238 | 0.0 | 1.7 | 0.00 | 0.00 | 0.00 | 54 | 1032.4 |
| 20260502062838 | 42 | 250 | 0.0 | 0.0 | 0.00 | 0.00 | 0.00 | 54 | 1032.4 |
| 20260502062610 | 42 | 250 | 0.0 | 2.6 | 0.00 | 0.00 | 0.00 | 54 | 1032.5 |
| 20260502061821 | 42 | 250 | 0.0 | 2.6 | 0.00 | 0.00 | 0.00 | 53 | 1032.5 |
| 20260502061322 | 42 | 250 | 0.0 | 0.0 | 0.00 | 0.00 | 0.00 | 53 | 1032.4 |
| 20260502060812 | 42 | 250 | 0.0 | 0.0 | 0.00 | 0.00 | 0.00 | 53 | 1032.5 |
| 20260502060543 | 42 | 250 | 0.0 | 0.0 | 0.00 | 0.00 | 0.00 | 53 | 1032.5 |
| 20260502055813 | 43 | 250 | 0.0 | 0.0 | 0.00 | 0.00 | 0.00 | 53 | 1032.5 |
| 20260502055250 | 43 | 250 | 0.0 | 0.0 | 0.00 | 0.00 | 0.00 | 53 | 1032.5 |
| 20260502054726 | 43 | 250 | 0.0 | 0.0 | 0.00 | 0.00 | 0.00 | 53 | 1032.5 |
| 20260502054228 | 43 | 250 | 0.0 | 0.0 | 0.00 | 0.00 | 0.00 | 53 | 1032.5 |
| 20260502053721 | 43 | 250 | 0.0 | 0.0 | 0.00 | 0.00 | 0.00 | 53 | 1032.4 |
| 20260502053222 | 43 | 250 | 0.0 | 0.0 | 0.00 | 0.00 | 0.00 | 53 | 1032.5 |
| 20260502052707 | 43 | 250 | 0.0 | 0.0 | 0.00 | 0.00 | 0.00 | 53 | 1032.4 |
| 20260502052204 | 43 | 250 | 0.0 | 0.0 | 0.00 | 0.00 | 0.00 | 52 | 1032.5 |
| 20260502051704 | 43 | 250 | 0.0 | 0.0 | 0.00 | 0.00 | 0.00 | 52 | 1032.5 |
| 20260502051157 | 44 | 250 | 0.0 | 0.0 | 0.00 | 0.00 | 0.00 | 51 | 1032.4 |
| 20260502050652 | 44 | 250 | 0.0 | 0.0 | 0.00 | 0.00 | 0.00 | 51 | 1032.4 |
| 20260502050150 | 44 | 250 | 0.0 | 0.0 | 0.00 | 0.00 | 0.00 | 51 | 1032.4 |
| 20260502045626 | 44 | 250 | 0.0 | 0.0 | 0.00 | 0.00 | 0.00 | 50 | 1032.4 |
| 20260502045111 | 44 | 250 | 0.0 | 0.0 | 0.00 | 0.00 | 0.00 | 50 | 1032.4 |
| 20260502044551 | 44 | 250 | 0.0 | 0.0 | 0.00 | 0.00 | 0.00 | 50 | 1032.3 |
| 20260502044049 | 44 | 250 | 0.0 | 0.0 | 0.00 | 0.00 | 0.00 | 49 | 1032.4 |
| 20260502043552 | 44 | 250 | 0.0 | 0.0 | 0.00 | 0.00 | 0.00 | 50 | 1032.4 |
| 20260502043014 | 44 | 250 | 0.0 | 0.0 | 0.00 | 0.00 | 0.00 | 49 | 1032.4 |
| 20260502042458 | 44 | 250 | 0.0 | 0.0 | 0.00 | 0.00 | 0.00 | 49 | 1032.4 |
| 20260502042232 | 44 | 250 | 0.0 | 0.0 | 0.00 | 0.00 | 0.00 | 49 | 1032.3 |
| 20260502041956 | 44 | 250 | 0.0 | 0.0 | 0.00 | 0.00 | 0.00 | 49 | 1032.4 |
| 20260502040955 | 44 | 250 | 0.0 | 0.0 | 0.00 | 0.00 | 0.00 | 49 | 1032.4 |
| 20260502040441 | 45 | 250 | 0.0 | 0.0 | 0.00 | 0.00 | 0.00 | 49 | 1032.4 |
| 20260502040214 | 45 | 250 | 0.0 | 0.0 | 0.00 | 0.00 | 0.00 | 48 | 1032.4 |
| 20260502035434 | 45 | 250 | 0.0 | 0.0 | 0.00 | 0.00 | 0.00 | 48 | 1032.4 |
| 20260502034935 | 45 | 250 | 0.0 | 0.0 | 0.00 | 0.00 | 0.00 | 48 | 1032.4 |
| 20260502034431 | 46 | 250 | 0.0 | 0.0 | 0.00 | 0.00 | 0.00 | 47 | 1032.4 |
| 20260502033929 | 46 | 250 | 0.0 | 0.0 | 0.00 | 0.00 | 0.00 | 47 | 1032.4 |
| 20260502033409 | 46 | 250 | 0.0 | 0.0 | 0.00 | 0.00 | 0.00 | 45 | 1032.5 |
| 20260502032856 | 46 | 250 | 0.0 | 0.0 | 0.00 | 0.00 | 0.00 | 45 | 1032.5 |
| 20260502032400 | 46 | 250 | 0.0 | 0.0 | 0.00 | 0.00 | 0.00 | 45 | 1032.5 |
| 20260502032103 | 46 | 250 | 0.0 | 0.0 | 0.00 | 0.00 | 0.00 | 44 | 1032.5 |
| 20260502031330 | 46 | 250 | 0.0 | 0.0 | 0.00 | 0.00 | 0.00 | 44 | 1032.5 |
| 20260502030829 | 47 | 250 | 0.0 | 0.0 | 0.00 | 0.00 | 0.00 | 44 | 1032.6 |
| 20260502030311 | 47 | 250 | 0.0 | 0.0 | 0.00 | 0.00 | 0.00 | 44 | 1032.6 |
| 20260502025753 | 47 | 250 | 0.0 | 0.0 | 0.00 | 0.00 | 0.00 | 44 | 1032.5 |
| 20260502025232 | 47 | 250 | 0.0 | 0.0 | 0.00 | 0.00 | 0.00 | 43 | 1032.5 |
| 20260502024733 | 47 | 250 | 0.0 | 0.0 | 0.00 | 0.00 | 0.00 | 43 | 1032.4 |
| 20260502024206 | 47 | 250 | 0.0 | 0.0 | 0.00 | 0.00 | 0.00 | 42 | 1032.5 |
| 20260502023924 | 48 | 250 | 0.0 | 0.0 | 0.00 | 0.00 | 0.00 | 42 | 1032.4 |
| 20260502023143 | 48 | 250 | 0.0 | 0.0 | 0.00 | 0.00 | 0.00 | 41 | 1032.4 |
| 20260502022644 | 48 | 250 | 0.0 | 0.0 | 0.00 | 0.00 | 0.00 | 40 | 1032.4 |
| 20260502022144 | 48 | 250 | 0.0 | 0.0 | 0.00 | 0.00 | 0.00 | 41 | 1032.4 |
| 20260502021625 | 48 | 250 | 0.0 | 0.0 | 0.00 | 0.00 | 0.00 | 40 | 1032.3 |
| 20260502021123 | 48 | 250 | 0.0 | 0.0 | 0.00 | 0.00 | 0.00 | 39 | 1032.4 |
| 20260502020603 | 49 | 250 | 0.0 | 0.0 | 0.00 | 0.00 | 0.00 | 38 | 1032.3 |
| 20260502020559 | 49 | 250 | 0.0 | 0.0 | 0.00 | 0.00 | 0.00 | 39 | 1032.3 |
| 20260502015552 | 49 | 250 | 0.0 | 0.0 | 0.00 | 0.00 | 0.00 | 38 | 1032.2 |
| 20260502015325 | 49 | 250 | 0.0 | 0.0 | 0.00 | 0.00 | 0.00 | 38 | 1032.2 |
| 20260502014525 | 49 | 250 | 0.0 | 0.0 | 0.00 | 0.00 | 0.00 | 38 | 1032.1 |
| 20260502014028 | 49 | 250 | 0.0 | 0.0 | 0.00 | 0.00 | 0.00 | 39 | 1032.0 |
| 20260502013506 | 50 | 250 | 0.0 | 0.0 | 0.00 | 0.00 | 0.00 | 38 | 1032.0 |
| 20260502013006 | 50 | 250 | 0.0 | 0.0 | 0.00 | 0.00 | 0.00 | 38 | 1031.8 |
| 20260502012503 | 50 | 250 | 0.0 | 0.0 | 0.00 | 0.00 | 0.00 | 38 | 1031.8 |
| 20260502011933 | 51 | 250 | 0.0 | 0.0 | 0.00 | 0.00 | 0.00 | 37 | 1031.8 |
| 20260502011435 | 51 | 250 | 0.0 | 0.0 | 0.00 | 0.00 | 0.00 | 37 | 1031.8 |
| 20260502010914 | 51 | 250 | 0.0 | 0.0 | 0.00 | 0.00 | 0.00 | 36 | 1031.7 |
| 20260502010335 | 51 | 250 | 0.0 | 0.0 | 0.00 | 0.00 | 0.00 | 36 | 1031.7 |
| 20260502005811 | 52 | 250 | 0.0 | 0.0 | 0.00 | 0.00 | 0.00 | 36 | 1031.8 |
| 20260502005254 | 52 | 250 | 0.0 | 0.0 | 0.00 | 0.00 | 0.00 | 35 | 1031.7 |
| 20260502004725 | 52 | 250 | 0.0 | 7.0 | 0.00 | 0.00 | 0.00 | 35 | 1031.7 |
| 20260502004223 | 52 | 250 | 0.0 | 7.0 | 0.00 | 0.00 | 0.00 | 34 | 1031.7 |
| 20260502003934 | 52 | 262 | 0.0 | 2.6 | 0.00 | 0.00 | 0.00 | 33 | 1031.7 |
| 20260502003132 | 53 | 200 | 0.0 | 0.9 | 0.00 | 0.00 | 0.00 | 33 | 1031.7 |
| 20260502002636 | 53 | 200 | 0.0 | 0.9 | 0.00 | 0.00 | 0.00 | 32 | 1031.7 |
| 20260502002053 | 53 | 300 | 0.0 | 0.0 | 0.00 | 0.00 | 0.00 | 34 | 1031.7 |
| 20260502001551 | 53 | 300 | 0.0 | 0.0 | 0.00 | 0.00 | 0.00 | 33 | 1031.6 |
| 20260502001048 | 53 | 300 | 0.0 | 0.9 | 0.00 | 0.00 | 0.00 | 33 | 1031.7 |
| 20260502000808 | 53 | 347 | 0.0 | 0.9 | 0.00 | 0.00 | 0.00 | 34 | 1031.7 |
| 20260502000034 | 53 | 250 | 0.0 | 0.0 | 0.00 | 0.00 | 0.00 | 33 | 1031.6 |
| 20260501235535 | 53 | 250 | 0.0 | 0.0 | 0.00 | 0.00 | 0.00 | 33 | 1031.6 |
| 20260501235024 | 54 | 250 | 0.0 | 0.0 | 0.00 | 0.00 | 0.00 | 33 | 1031.6 |
| 20260501234455 | 54 | 250 | 0.0 | 0.0 | 0.00 | 0.00 | 0.00 | 32 | 1031.7 |
| 20260501233953 | 55 | 250 | 0.0 | 0.0 | 0.00 | 0.00 | 0.00 | 32 | 1031.7 |
| 20260501233428 | 55 | 250 | 0.0 | 6.1 | 0.00 | 0.00 | 0.00 | 33 | 1031.6 |
| 20260501232859 | 55 | 224 | 0.0 | 6.1 | 0.00 | 0.00 | 0.00 | 31 | 1031.5 |
| 20260501232628 | 56 | 290 | 0.0 | 4.3 | 0.00 | 0.00 | 0.00 | 30 | 1031.5 |
| 20260501231848 | 56 | 324 | 0.0 | 0.0 | 0.00 | 0.00 | 0.00 | 30 | 1031.5 |
| 20260501231319 | 56 | 304 | 0.0 | 0.0 | 0.00 | 0.00 | 0.00 | 32 | 1031.5 |
| 20260501230816 | 56 | 291 | 0.0 | 0.0 | 0.00 | 0.00 | 0.00 | 31 | 1031.6 |
| 20260501230313 | 57 | 317 | 0.0 | 0.0 | 0.00 | 0.00 | 0.00 | 31 | 1031.6 |
| 20260501225810 | 56 | 5 | 0.0 | 3.5 | 0.00 | 0.00 | 0.00 | 31 | 1031.7 |
| 20260501225244 | 56 | 5 | 0.0 | 3.5 | 0.00 | 0.00 | 0.00 | 30 | 1031.7 |
| 20260501224734 | 56 | 241 | 0.0 | 0.0 | 0.00 | 0.00 | 0.00 | 30 | 1031.7 |
| 20260501224503 | 57 | 241 | 0.0 | 0.0 | 0.00 | 0.00 | 0.00 | 30 | 1031.7 |
| 20260501223703 | 58 | 241 | 0.0 | 2.6 | 0.00 | 0.00 | 0.00 | 28 | 1031.7 |
| 20260501223202 | 59 | 241 | 0.0 | 2.6 | 0.00 | 0.00 | 0.00 | 29 | 1031.7 |
| 20260501222904 | 58 | 241 | 0.0 | 2.6 | 0.00 | 0.00 | 0.00 | 29 | 1031.7 |
| 20260501222130 | 59 | 261 | 0.0 | 2.6 | 0.00 | 0.00 | 0.00 | 28 | 1031.7 |
| 20260501221611 | 59 | 248 | 0.0 | 2.6 | 0.00 | 0.00 | 0.00 | 28 | 1031.7 |
| 20260501221111 | 59 | 327 | 0.0 | 0.0 | 0.00 | 0.00 | 0.00 | 30 | 1031.7 |
| 20260501220545 | 58 | 355 | 0.0 | 2.6 | 0.00 | 0.00 | 0.00 | 28 | 1031.8 |
| 20260501220016 | 59 | 294 | 0.0 | 2.6 | 0.00 | 0.00 | 0.00 | 29 | 1031.7 |
| 20260501215514 | 59 | 294 | 0.0 | 4.3 | 0.00 | 0.00 | 0.00 | 28 | 1031.7 |
| 20260501214958 | 59 | 240 | 0.0 | 4.3 | 0.00 | 0.00 | 0.00 | 28 | 1031.7 |
| 20260501214500 | 58 | 322 | 0.0 | 0.0 | 0.00 | 0.00 | 0.00 | 31 | 1031.7 |
| 20260501213934 | 58 | 315 | 0.0 | 0.0 | 0.00 | 0.00 | 0.00 | 30 | 1031.7 |
| 20260501213910 | 58 | 0 | 0.0 | 0.0 | 0.00 | 0.00 | 0.00 | 29 | 1031.6 |
| 20260501213110 | 57 | 275 | 0.0 | 3.5 | 0.00 | 0.00 | 0.00 | 30 | 1031.7 |
| 20260501212609 | 56 | 244 | 0.0 | 3.5 | 0.00 | 0.00 | 0.00 | 30 | 1031.7 |
| 20260501212326 | 55 | 355 | 0.0 | 0.9 | 0.00 | 0.00 | 0.00 | 32 | 1031.7 |
| 20260501211323 | 55 | 237 | 0.0 | 0.9 | 0.00 | 0.00 | 0.00 | 33 | 1031.8 |
| 20260501210756 | 54 | 344 | 0.0 | 0.0 | 0.00 | 0.00 | 0.00 | 32 | 1031.8 |
| 20260501210253 | 54 | 345 | 0.0 | 0.0 | 0.00 | 0.00 | 0.00 | 32 | 1031.8 |
| 20260501205752 | 53 | 15 | 0.0 | 0.0 | 0.00 | 0.00 | 0.00 | 33 | 1031.8 |
| 20260501205223 | 53 | 22 | 0.0 | 0.0 | 0.00 | 0.00 | 0.00 | 32 | 1032.1 |
| 20260501204719 | 54 | 337 | 0.0 | 0.0 | 0.00 | 0.00 | 0.00 | 33 | 1032.1 |
| 20260501204212 | 53 | 21 | 0.0 | 0.0 | 0.00 | 0.00 | 0.00 | 32 | 1032.1 |
| 20260501203644 | 54 | 22 | 0.0 | 0.9 | 0.00 | 0.00 | 0.00 | 33 | 1032.1 |
| 20260501203142 | 54 | 11 | 0.0 | 0.9 | 0.00 | 0.00 | 0.00 | 32 | 1032.1 |
| 20260501202847 | 54 | 33 | 0.0 | 0.0 | 0.00 | 0.00 | 0.00 | 31 | 1032.2 |
| 20260501202319 | 56 | 18 | 0.0 | 0.0 | 0.00 | 0.00 | 0.00 | 31 | 1032.1 |
| 20260501201543 | 55 | 338 | 0.0 | 0.9 | 0.00 | 0.00 | 0.00 | 32 | 1032.1 |
| 20260501201025 | 56 | 17 | 0.0 | 0.9 | 0.00 | 0.00 | 0.00 | 34 | 1032.2 |
| 20260501200524 | 57 | 346 | 0.0 | 0.0 | 0.00 | 0.00 | 0.00 | 30 | 1032.1 |
| 20260501195958 | 58 | 243 | 0.0 | 0.0 | 0.00 | 0.00 | 0.00 | 30 | 1032.1 |
| 20260501195430 | 57 | 243 | 0.0 | 2.6 | 0.00 | 0.00 | 0.00 | 29 | 1032.2 |
| 20260501194928 | 56 | 298 | 0.0 | 3.5 | 0.00 | 0.00 | 0.00 | 31 | 1032.2 |
| 20260501194407 | 56 | 355 | 0.0 | 3.5 | 0.00 | 0.00 | 0.00 | 31 | 1032.2 |
| 20260501194113 | 56 | 346 | 0.0 | 2.6 | 0.00 | 0.00 | 0.00 | 32 | 1032.2 |